AirNav   TITAN Aviation Fuels
 
 1471 users online  

49T Dallas CBD Vertiport
Dallas, Texas, USA

GOING TO DALLAS?


FAA INFORMATION EFFECTIVE 19 MAY 2022

Location

FAA Identifier: 49T
Lat/Long: 32-46-18.2000N 096-48-07.4000W
32-46.303333N 096-48.123333W
32.7717222,-96.8020556
(estimated)
Elevation: 480 ft. / 146 m (estimated)
Variation: 06E (1990)
Time zone: UTC -5 (UTC -6 during Standard Time)
Zip code: 75202

Heliport Operations

Heliport use: Open to the public
Activation date: 01/1994
Control tower: no
ARTCC: FORT WORTH CENTER
FSS: FORT WORTH FLIGHT SERVICE STATION
NOTAMs facility: FTW (NOTAM-D service available)
Attendance: UNATNDD
Wind indicator: lighted
Segmented circle: no
Lights: ACTVT PERIMETER LGTS - CTAF.
Beacon: white-green-yellow (heliport)
Operates sunset to sunrise.

Heliport Communications

CTAF/UNICOM: 123.05
WX AWOS-3: 135.425 (214-670-1243)
WX ASOS at DAL (5 nm NW): PHONE 214-353-1551
WX ASOS at RBD (6 nm SW): PHONE 214-330-5317
WX AWOS-3PT at ADS (12 nm N): PHONE 972-386-4855
WX AWOS-3PT at LNC (12 nm S): 118.975 (972-227-0471)
WX AWOS-3P at GPM (13 nm W): 118.475 (972-606-1433)
WX AWOS-3 at HQZ (14 nm E): 118.175 (972-222-7631)
WX ASOS at DFW (14 nm NW): PHONE 972-615-2608
WX ASOS at GKY (16 nm SW): 127.375 (817-557-0251)
WX AWOS-3 at JWY (20 nm S): 119.575 (972-937-4747)

Nearby radio navigation aids

VOR radial/distance  VOR name  Freq  Var
CVEr138/8.8COWBOY VOR/DME116.2006E
TTTr110/13.4MAVERICK VOR/DME113.1006E
FUZr104/20.3RANGER VORTAC115.7006E

 
NDB name  Hdg/Dist  Freq  Var  ID
MESQUITE258/14.024803EPQF .--. --.- ..-.

Heliport Services

Parking: tiedowns

Runway Information

Helipad H1

Dimensions: 60 x 60 ft. / 18 x 18 m
Surface: concrete, in excellent condition
Weight bearing capacity: 
Single wheel: 43.0
Runway edge lights: PERI
Operational restrictions: ROOFTOP. INGRESS/EGRESS SW.
Latitude: 32-46.288000N
Longitude: 096-48.133667W
Elevation: 480.0 ft.
Traffic pattern: leftleft
Markings: basic, in good condition

Helipad H2

Dimensions: 60 x 60 ft. / 18 x 18 m
Surface: concrete, in excellent condition
Weight bearing capacity: 
Single wheel: 43.0
Runway edge lights: PERI
Operational restrictions: ROOFTOP. INGRESS/EGRESS SE.
Latitude: 32-46.318500N
Longitude: 096-48.113833W
Elevation: 480.0 ft.
Traffic pattern: leftleft
Markings: basic, in good condition

Heliport Ownership and Management from official FAA records

Ownership: Publicly-owned
Owner: CITY OF DALLAS
801 S LAMAR
DALLAS, TX 75202
Phone 214-670-4338
DEPT OF AVIATION.
Manager: RAFAEL GARZA JR.
5303 CHALLENGER DRIVE
DALLAS, TX 75237
Phone 214-670-1296
ALSO 214-670-7612.

Heliport Operational Statistics

Aircraft operations: avg 61/month *
100% transient general aviation
* for 12-month period ending 31 December 2018

Additional Remarks

A52-H1 H1 & H2 900 FT BLDGS NW; 500 FT BLDGS NE 1.2 MILE DSTC.
FOR CD CTC REGIONAL APCH AT 972-615-2799.
HELIPORT PHYSICAL ADDRESS 801 S. LAMAR, DALLAS, TX.
HELIPAD SECURITY 214-939-2940.

Instrument Procedures

There are no published instrument procedures at 49T.

Some nearby airports with instrument procedures:

KDAL - Dallas Love Field Airport (5 nm NW)
KRBD - Dallas Executive Airport (6 nm SW)
KADS - Addison Airport (12 nm N)
KLNC - Lancaster Regional Airport (12 nm S)
KGPM - Grand Prairie Municipal Airport (13 nm W)
KHQZ - Mesquite Metro Airport (14 nm E)
KDFW - Dallas-Fort Worth International Airport (14 nm NW)
KGKY - Arlington Municipal Airport (16 nm SW)
KJWY - Mid-Way Regional Airport (20 nm S)
 
Loc | Ops | Rwys | IFR | FBO | Links
Com | Nav | Svcs | Stats | Notes

City of Fort Worth
 
Area around 49T (Dallas CBD Vertiport)
 
Road maps at: MapQuest Bing Google
 
Aerial photo
WARNING: Photo may not be current or correct
Aerial photo of 49T (Dallas CBD Vertiport)
Photo by Bryant Sivess
Photo taken 10-Oct-2013
looking north.

Do you have a better or more recent aerial photo of Dallas CBD Vertiport that you would like to share? If so, please send us your photo.

 
Sectional chart

 
Airport distance calculator
Flying to Dallas CBD Vertiport? Find the distance to fly.

From to 49T

Sunrise and sunset
Times for 27-May-2022
 Local
(UTC-5)
 Zulu
(UTC)
Morning civil twilight05:5510:55
Sunrise06:2311:23
Sunset20:2601:26
Evening civil twilight20:5401:54

Current date and time
Zulu (UTC)  27-May-2022 15:35:46
Local (UTC-5)  27-May-2022 10:35:46
 
METAR
KDAL 
5nm NW 
271453Z 00000KT 10SM CLR 26/13 A3006 RMK AO2 SLP172 T02560133 51013
KRBD 
6nm SW 
271453Z 35003KT 10SM CLR 26/12 A3005 RMK AO2 SLP169 T02610122 51013
KADS 
12nm N 
271447Z 00000KT 10SM SKC 26/08 A3007
KLNC 
12nm S 
271515Z AUTO 00000KT 7SM CLR 26/15 A3007 RMK AO2 T02590145
KGPM 
13nm W 
271450Z 00000KT 10SM SKC 26/12 A3008
KDFW 
13nm NW 
271453Z VRB03KT 10SM FEW010 26/12 A3005 RMK AO2 SLP167 FU FEW010 SW T02610117 51014
KHQZ 
14nm E 
271350Z 00000KT 10SM CLR 21/15 A3006
KGKY 
16nm SW 
271453Z VRB03KT 10SM CLR 27/13 A3006 RMK AO2 SLP170 60000 T02670128 51010
KJWY 
20nm S 
271515Z AUTO 00000KT 10SM CLR 26/12 A3008 RMK AO2 T02630121
TAF
KDAL 
5nm NW 
271120Z 2712/2812 VRB04KT P6SM SKC FM280000 15008KT P6SM SKC
KDFW 
13nm NW 
271120Z 2712/2818 VRB04KT P6SM SKC FM280000 15008KT P6SM SKC
KGKY 
16nm SW 
271120Z 2712/2812 VRB04KT P6SM SKC FM280000 15008KT P6SM SKC
NOTAMs
Click for the latest NOTAMs
NOTAMs are issued by the DoD/FAA and will open in a separate window not controlled by AirNav.

 

 
 

Would you like to see your business listed on this page?

 If your business provides an interesting product or service to pilots, flight crews, aircraft, or users of the Dallas CBD Vertiport, you should consider listing it here.  To start the listing process, click on the button below
 
Add a business
 

Other Pages about Dallas CBD Vertiport

www.dallascityhall.com/...
 
Update a link
 
Copyright © AirNav, LLC. All rights reserved. Privacy Policy  Contact